PAMC

Mc Grath Airport

Mcgrath, Alaska, USA
PAMC 151128Z 1512/1612 32003KT P6SM FEW017
Issued Valid From Valid To
Nov-15 @ 11:28 UTC
(an hour ago)
Nov-15 @ 12:00 UTC
(43 minutes ago)
Nov-16 @ 12:00 UTC
(in 23 hours)
Nov-15 @ 12:00 to Nov-16 @ 12:00
PAMC 151128Z 1512/1612 32003KT P6SM FEW017
Wind Visibility Clouds
320° at 3 knots Greater than 6 miles
  • Few at 1,700' AGL
PAMC 151128Z 1512/1612 32003KT P6SM FEW017
Issued Nov-15 @ 11:28 UTC
(an hour ago)
Valid From Nov-15 @ 12:00 UTC
(43 minutes ago)
Valid To Nov-16 @ 12:00 UTC
(in 23 hours)
Nov-15 @ 12:00 - Nov-16 @ 12:00
Wind Visibility
320° at 3 knots Greater than 6 miles
Clouds
  • Few at 1,700' AGL